Time;durP1;ratioP1;P1;durP2;ratioP2;P2;SDS_P1;SDS_P2;PMS_P1;PMS_P2;Temp;Humidity;BMP_temperature;BMP_pressure;BME280_temperature;BME280_humidity;BME280_pressure;Samples;Min_cycle;Max_cycle;Signal;HPM_P1;HPM_P2
2022/12/14 00:01:55;;;;;;;63.55;24.17;;;;;;;-7.76;100.00;150626.63;5040049;28;20040;-75
2022/12/14 00:04:21;;;;;;;61.55;23.08;;;;;;;-7.68;100.00;150648.19;5034638;28;20044;-75
2022/12/14 00:06:46;;;;;;;59.40;22.35;;;;;;;-7.63;100.00;150660.84;5047703;28;20059;-75
2022/12/14 00:09:12;;;;;;;59.78;22.60;;;;;;;-7.60;100.00;150667.16;5045679;28;20117;-74
2022/12/14 00:11:38;;;;;;;53.63;22.30;;;;;;;-7.63;100.00;150659.56;5036734;28;20044;-74
2022/12/14 00:14:04;;;;;;;53.03;22.40;;;;;;;-7.59;100.00;150668.41;5040227;28;20036;-75
2022/12/14 00:16:31;;;;;;;53.42;22.33;;;;;;;-7.46;100.00;150702.63;5072536;28;20032;-74
2022/12/14 00:18:59;;;;;;;57.92;22.48;;;;;;;-7.41;100.00;150712.75;5066608;28;20033;-74
2022/12/14 00:21:26;;;;;;;61.78;23.52;;;;;;;-7.39;100.00;150717.81;5058393;28;20132;-74
2022/12/14 00:23:53;;;;;;;54.78;22.30;;;;;;;-7.46;100.00;150702.63;5031929;28;20072;-74
2022/12/14 00:26:21;;;;;;;52.80;21.45;;;;;;;-7.48;100.00;150696.28;5046813;28;20102;-74
2022/12/14 00:28:49;;;;;;;54.20;21.60;;;;;;;-7.57;100.00;150674.78;5040684;28;20497;-74
2022/12/14 00:31:15;;;;;;;58.38;22.55;;;;;;;-7.67;100.00;150650.69;5056959;28;20045;-74
2022/12/14 00:33:40;;;;;;;57.10;22.00;;;;;;;-7.68;100.00;150648.19;5042007;28;20043;-75
2022/12/14 00:36:08;;;;;;;57.13;22.30;;;;;;;-7.79;100.00;150620.31;5048242;28;20045;-75
2022/12/14 00:38:35;;;;;;;48.92;20.65;;;;;;;-7.95;100.00;150579.81;5045821;28;20107;-75
2022/12/14 00:41:01;;;;;;;53.65;20.63;;;;;;;-8.05;100.00;150557.03;5056221;28;20536;-75
2022/12/14 00:43:27;;;;;;;55.33;21.33;;;;;;;-8.04;100.00;150559.56;5031674;28;20036;-75
2022/12/14 00:45:53;;;;;;;56.35;20.88;;;;;;;-8.03;100.00;150560.81;5030930;28;20103;-75
2022/12/14 00:48:20;;;;;;;54.55;20.80;;;;;;;-8.15;100.00;150530.47;5035713;28;20131;-75
2022/12/14 00:50:47;;;;;;;52.00;21.13;;;;;;;-8.23;100.00;150511.47;5056931;28;20375;-75
2022/12/14 00:53:13;;;;;;;46.55;19.55;;;;;;;-8.31;100.00;150492.47;5047959;28;20024;-75
2022/12/14 00:55:41;;;;;;;51.55;21.40;;;;;;;-8.30;100.00;150495.03;5040637;28;20027;-74
2022/12/14 00:58:10;;;;;;;51.13;20.15;;;;;;;-8.32;100.00;150488.72;5035457;28;20187;-75
2022/12/14 01:00:35;;;;;;;56.58;20.83;;;;;;;-8.37;100.00;150477.31;5029015;28;20036;-75
2022/12/14 01:03:01;;;;;;;51.35;20.98;;;;;;;-8.41;100.00;150467.19;5047544;28;20074;-75
2022/12/14 01:05:27;;;;;;;49.22;19.70;;;;;;;-8.42;100.00;150466.00;5047711;28;20766;-75
2022/12/14 01:07:53;;;;;;;52.83;20.88;;;;;;;-8.44;100.00;150460.94;5036572;28;20039;-74
2022/12/14 01:10:19;;;;;;;46.25;20.40;;;;;;;-8.44;100.00;150460.94;5046429;28;20505;-75
2022/12/14 01:12:44;;;;;;;46.45;19.83;;;;;;;-8.45;100.00;150458.38;5033989;28;20040;-75
2022/12/14 01:15:11;;;;;;;48.38;19.48;;;;;;;-8.45;100.00;150458.38;5055394;28;20488;-75
2022/12/14 01:17:36;;;;;;;47.28;19.95;;;;;;;-8.46;100.00;150455.84;5048571;28;20031;-74
2022/12/14 01:20:03;;;;;;;47.55;20.02;;;;;;;-8.40;100.00;150469.69;5032000;28;20041;-75
2022/12/14 01:22:29;;;;;;;46.83;19.05;;;;;;;-8.36;100.00;150479.88;5066398;28;20094;-75
2022/12/14 01:24:55;;;;;;;54.20;19.55;;;;;;;-8.33;100.00;150487.44;5049294;28;20063;-76
2022/12/14 01:27:21;;;;;;;61.28;21.10;;;;;;;-8.38;100.00;150474.81;5051318;28;20048;-75
2022/12/14 01:29:47;;;;;;;54.70;20.10;;;;;;;-8.43;100.00;150462.19;5065229;28;20059;-75
2022/12/14 01:32:13;;;;;;;45.30;18.80;;;;;;;-8.48;100.00;150449.53;5029764;28;20067;-74
2022/12/14 01:34:38;;;;;;;51.05;19.85;;;;;;;-8.54;100.00;150435.59;5033697;28;20036;-75
2022/12/14 01:37:04;;;;;;;43.33;18.67;;;;;;;-8.59;100.00;150421.69;5053692;28;20494;-74
2022/12/14 01:39:32;;;;;;;44.67;18.00;;;;;;;-8.57;100.00;150428.00;5032939;28;20039;-75
2022/12/14 01:41:58;;;;;;;47.47;19.52;;;;;;;-8.59;100.00;150422.94;5049574;28;20119;-75
2022/12/14 01:44:24;;;;;;;45.60;19.75;;;;;;;-8.56;100.00;150430.56;5043942;28;20043;-75
2022/12/14 01:46:52;;;;;;;52.20;19.60;;;;;;;-8.54;100.00;150434.34;5064636;28;20484;-75
2022/12/14 01:49:29;;;;;;;55.03;18.75;;;;;;;-8.51;100.00;150441.91;5054539;28;20048;-74
2022/12/14 01:52:15;;;;;;;54.13;19.90;;;;;;;-8.48;100.00;150449.53;5058138;28;20048;-74
2022/12/14 01:55:13;;;;;;;48.85;19.63;;;;;;;-8.47;100.00;150453.31;5026477;28;20085;-74
2022/12/14 01:57:50;;;;;;;47.55;19.90;;;;;;;-8.50;100.00;150445.72;5030776;28;20040;-75
2022/12/14 02:00:16;;;;;;;43.63;18.33;;;;;;;-8.49;100.00;150447.03;5057490;28;20040;-75
2022/12/14 02:02:52;;;;;;;51.65;19.60;;;;;;;-8.46;100.00;150455.84;5064028;28;20064;-75
2022/12/14 02:05:20;;;;;;;46.05;18.52;;;;;;;-8.44;100.00;150460.94;5044428;28;20040;-75
2022/12/14 02:07:49;;;;;;;55.10;20.27;;;;;;;-8.50;100.00;150444.47;5030404;28;20099;-75
2022/12/14 02:10:16;;;;;;;48.80;18.55;;;;;;;-8.51;100.00;150443.22;5053661;28;20051;-75
2022/12/14 02:12:46;;;;;;;50.38;19.40;;;;;;;-8.49;100.00;150447.03;5074119;28;20033;-75
2022/12/14 02:15:13;;;;;;;48.63;18.67;;;;;;;-8.45;100.00;150457.13;5054900;28;20101;-75
2022/12/14 02:17:42;;;;;;;52.83;20.48;;;;;;;-8.44;100.00;150460.94;5028605;28;20060;-75
2022/12/14 02:20:11;;;;;;;52.60;20.13;;;;;;;-8.50;100.00;150444.47;5022754;28;20036;-76
2022/12/14 02:23:14;;;;;;;51.42;19.98;;;;;;;-8.50;100.00;150445.72;5021955;28;21242;-75
2022/12/14 02:25:58;;;;;;;45.60;18.35;;;;;;;-8.54;100.00;150435.59;5047611;28;20036;-74
2022/12/14 02:28:46;;;;;;;50.25;19.65;;;;;;;-8.56;100.00;150429.31;5030312;28;20071;-74
2022/12/14 02:31:29;;;;;;;47.75;18.33;;;;;;;-8.66;100.00;150405.28;5021876;28;20761;-75
2022/12/14 02:34:34;;;;;;;51.30;19.35;;;;;;;-8.62;100.00;150415.38;5049375;28;20145;-75
2022/12/14 02:37:15;;;;;;;47.72;18.50;;;;;;;-8.59;100.00;150421.69;5060017;28;20040;-75
2022/12/14 02:40:19;;;;;;;49.80;19.30;;;;;;;-8.55;100.00;150431.81;5049726;28;20059;-74
2022/12/14 02:43:12;;;;;;;43.30;17.48;;;;;;;-8.66;100.00;150406.53;5027905;28;20051;-75
2022/12/14 02:46:12;;;;;;;51.95;18.73;;;;;;;-8.67;100.00;150403.97;5027727;28;20590;-74
2022/12/14 02:48:49;;;;;;;46.95;19.15;;;;;;;-8.64;100.00;150411.59;5047598;28;20036;-75
2022/12/14 02:51:39;;;;;;;46.70;18.40;;;;;;;-8.72;100.00;150391.34;5054403;28;20098;-75
2022/12/14 02:54:16;;;;;;;45.25;18.45;;;;;;;-8.73;100.00;150387.56;5021365;28;20493;-75
2022/12/14 02:56:48;;;;;;;47.50;18.23;;;;;;;-8.71;100.00;150393.88;5010189;28;20040;-74
2022/12/14 02:59:15;;;;;;;50.67;19.08;;;;;;;-8.63;100.00;150412.84;5039862;28;20046;-75
2022/12/14 03:01:43;;;;;;;50.00;19.63;;;;;;;-8.54;100.00;150435.59;5039744;28;20070;-74
2022/12/14 03:04:09;;;;;;;50.45;19.48;;;;;;;-8.46;100.00;150455.84;5045852;28;20033;-74
2022/12/14 03:06:35;;;;;;;47.47;18.83;;;;;;;-8.46;100.00;150454.59;5062350;28;20037;-75
2022/12/14 03:09:09;;;;;;;51.00;20.27;;;;;;;-8.37;100.00;150476.06;5030013;28;20039;-75
2022/12/14 03:11:44;;;;;;;48.95;18.65;;;;;;;-8.40;100.00;150469.69;5052888;28;20411;-74
2022/12/14 03:14:22;;;;;;;47.65;18.50;;;;;;;-8.41;100.00;150467.19;5036129;28;20055;-75
2022/12/14 03:16:50;;;;;;;46.15;18.60;;;;;;;-8.42;100.00;150466.00;5038283;28;20048;-75
2022/12/14 03:19:22;;;;;;;46.50;19.75;;;;;;;-8.42;100.00;150464.69;5043950;28;20071;-75
2022/12/14 03:21:57;;;;;;;53.43;19.77;;;;;;;-8.48;100.00;150450.78;5030905;28;20039;-75
2022/12/14 03:24:33;;;;;;;47.33;18.80;;;;;;;-8.50;100.00;150444.47;5052893;28;20278;-75
2022/12/14 03:27:11;;;;;;;49.03;18.95;;;;;;;-8.51;100.00;150443.22;5019316;28;20043;-75
2022/12/14 03:29:47;;;;;;;46.55;19.20;;;;;;;-8.50;100.00;150444.47;5051334;28;20039;-75
2022/12/14 03:32:17;;;;;;;46.25;17.95;;;;;;;-8.62;100.00;150416.63;5052001;28;20068;-75
2022/12/14 03:35:09;;;;;;;47.60;18.55;;;;;;;-8.74;100.00;150386.25;5020891;28;20040;-75
2022/12/14 03:38:02;;;;;;;53.80;19.63;;;;;;;-8.76;100.00;150381.19;5044794;28;20035;-74
2022/12/14 03:40:35;;;;;;;45.22;18.52;;;;;;;-8.82;100.00;150367.28;5028411;28;20064;-75
2022/12/14 03:43:17;;;;;;;43.10;18.73;;;;;;;-8.76;100.00;150381.19;5040704;28;20032;-75
2022/12/14 03:45:57;;;;;;;51.10;19.67;;;;;;;-8.76;100.00;150381.19;5044596;28;20047;-75
2022/12/14 03:48:40;;;;;;;49.10;19.55;;;;;;;-8.75;100.00;150382.50;5050254;28;20163;-76
2022/12/14 03:51:11;;;;;;;45.40;17.92;;;;;;;-8.78;100.00;150374.91;5059194;28;20044;-76
2022/12/14 03:53:43;;;;;;;47.92;19.20;;;;;;;-8.75;100.00;150383.75;5046128;28;20036;-75
2022/12/14 03:56:48;;;;;;;53.20;18.73;;;;;;;-8.77;100.00;150377.44;5057794;28;20039;-75
2022/12/14 03:59:23;;;;;;;51.65;18.95;;;;;;;-8.84;100.00;150362.22;5042935;28;20075;-75
2022/12/14 04:02:04;;;;;;;47.65;18.73;;;;;;;-8.90;100.00;150347.06;5050964;28;20047;-76
2022/12/14 04:04:43;;;;;;;48.67;19.13;;;;;;;-8.89;100.00;150348.31;5051717;28;20435;-75
2022/12/14 04:07:33;;;;;;;47.60;18.27;;;;;;;-8.91;100.00;150343.28;5066704;28;20067;-75
2022/12/14 04:18:55;;;;;;;44.58;18.27;;;;;;;-8.97;100.00;150328.09;5065273;28;20045;-76
2022/12/14 04:21:25;;;;;;;48.38;19.17;;;;;;;-9.05;100.00;150310.41;5053996;28;20044;-75
2022/12/14 04:26:52;;;;;;;46.80;17.23;;;;;;;-9.22;100.00;150268.66;5056147;28;20028;-75
2022/12/14 04:32:11;;;;;;;46.75;18.83;;;;;;;-9.28;100.00;150252.25;5069309;28;20033;-76
2022/12/14 04:34:39;;;;;;;43.33;17.35;;;;;;;-9.28;100.00;150252.25;5048224;28;22032;-75
2022/12/14 04:37:10;;;;;;;46.35;18.52;;;;;;;-9.32;100.00;150242.09;5033735;28;20575;-76
2022/12/14 04:39:43;;;;;;;48.13;18.13;;;;;;;-9.36;100.00;150233.28;5049489;28;20492;-75
2022/12/14 04:42:10;;;;;;;49.22;17.63;;;;;;;-9.46;100.00;150209.25;5065300;28;20158;-76
2022/12/14 04:44:41;;;;;;;52.03;17.45;;;;;;;-9.48;100.00;150202.94;5058261;28;20044;-75
2022/12/14 04:47:10;;;;;;;45.63;18.02;;;;;;;-9.47;100.00;150205.47;5056437;28;20406;-75
2022/12/14 04:49:44;;;;;;;45.20;17.75;;;;;;;-9.44;100.00;150213.03;5050176;28;20048;-76
2022/12/14 04:52:16;;;;;;;49.28;17.85;;;;;;;-9.43;100.00;150216.84;5060659;28;20139;-75
2022/12/14 04:55:03;;;;;;;45.37;17.60;;;;;;;-9.44;100.00;150214.28;5052511;28;20032;-75
2022/12/14 04:58:02;;;;;;;45.33;17.58;;;;;;;-9.49;100.00;150200.38;5075956;28;20500;-75
2022/12/14 05:00:36;;;;;;;52.92;18.85;;;;;;;-9.62;100.00;150168.81;5048053;28;20048;-75
2022/12/14 05:03:20;;;;;;;49.17;18.63;;;;;;;-9.70;100.00;150149.88;5073834;28;20036;-76
2022/12/14 05:06:14;;;;;;;48.03;18.45;;;;;;;-9.80;100.00;150124.56;5062831;28;20039;-75
2022/12/14 05:09:11;;;;;;;53.63;18.15;;;;;;;-9.82;100.00;150120.78;5029848;28;20040;-76
2022/12/14 05:11:49;;;;;;;48.90;17.98;;;;;;;-9.81;100.00;150122.06;5022961;28;20040;-76
2022/12/14 05:14:21;;;;;;;44.20;17.35;;;;;;;-9.74;100.00;150139.72;5041064;28;20509;-75
2022/12/14 05:16:48;;;;;;;44.03;18.35;;;;;;;-9.67;100.00;150156.19;5035727;28;20387;-75
2022/12/14 05:19:13;;;;;;;44.20;17.65;;;;;;;-9.60;100.00;150175.13;5074560;28;20417;-75
2022/12/14 05:21:48;;;;;;;50.38;19.42;;;;;;;-9.54;100.00;150187.78;5036240;28;20024;-75
2022/12/14 05:24:15;;;;;;;50.72;19.50;;;;;;;-9.42;100.00;150219.41;5079560;28;20032;-75
2022/12/14 05:26:42;;;;;;;43.80;19.45;;;;;;;-9.35;100.00;150235.81;5063923;28;20868;-75
2022/12/14 05:29:08;;;;;;;48.83;19.90;;;;;;;-9.36;100.00;150233.28;5057859;28;20059;-75
2022/12/14 05:31:34;;;;;;;51.60;19.48;;;;;;;-9.38;100.00;150226.94;5050795;28;20392;-75
2022/12/14 05:33:59;;;;;;;46.72;18.92;;;;;;;-9.43;100.00;150215.59;5050328;28;20557;-75
2022/12/14 05:36:25;;;;;;;48.25;19.45;;;;;;;-9.32;100.00;150242.09;5021535;28;20047;-76
2022/12/14 05:38:51;;;;;;;52.85;18.65;;;;;;;-9.22;100.00;150267.41;5037703;28;20028;-75
2022/12/14 05:41:19;;;;;;;47.78;19.50;;;;;;;-9.22;100.00;150267.41;5028877;28;20094;-75
2022/12/14 05:43:44;;;;;;;49.70;19.42;;;;;;;-9.20;100.00;150272.47;5037890;28;20042;-75
2022/12/14 05:46:10;;;;;;;45.95;19.50;;;;;;;-9.36;100.00;150233.28;5055254;28;20032;-76
2022/12/14 05:48:37;;;;;;;49.22;18.50;;;;;;;-9.42;100.00;150219.41;5059751;28;20044;-75
2022/12/14 05:51:07;;;;;;;54.45;19.75;;;;;;;-9.50;100.00;150199.13;5074607;28;20035;-75
2022/12/14 05:53:37;;;;;;;48.45;18.25;;;;;;;-9.54;100.00;150189.03;5047447;28;20120;-75
2022/12/14 05:56:05;;;;;;;47.83;18.35;;;;;;;-9.53;100.00;150190.28;5048167;28;20840;-75
2022/12/14 05:58:31;;;;;;;52.97;19.50;;;;;;;-9.37;100.00;150229.50;5023254;28;20095;-75
2022/12/14 06:01:02;;;;;;;50.47;19.70;;;;;;;-9.26;100.00;150257.31;5054215;28;20042;-75
2022/12/14 06:03:28;;;;;;;60.00;21.23;;;;;;;-9.20;100.00;150273.72;5055550;28;20094;-75
2022/12/14 06:06:00;;;;;;;50.60;20.30;;;;;;;-9.17;100.00;150280.06;5031356;28;20040;-76
2022/12/14 06:08:26;;;;;;;52.75;20.88;;;;;;;-9.12;100.00;150292.69;5049047;28;20490;-75
2022/12/14 06:10:51;;;;;;;56.17;20.33;;;;;;;-9.10;100.00;150296.50;5033111;28;20097;-76
2022/12/14 06:13:17;;;;;;;57.53;21.60;;;;;;;-9.09;100.00;150299.03;5034842;28;20405;-76
2022/12/14 06:15:45;;;;;;;60.45;23.58;;;;;;;-9.08;100.00;150301.53;5048294;28;20028;-76
2022/12/14 06:18:11;;;;;;;64.75;22.55;;;;;;;-9.06;100.00;150306.59;5040231;28;20584;-75
2022/12/14 06:20:37;;;;;;;56.30;21.92;;;;;;;-9.02;100.00;150318.00;5023942;28;20036;-76
2022/12/14 06:23:03;;;;;;;51.28;20.98;;;;;;;-9.07;100.00;150304.09;5032538;28;20036;-75
2022/12/14 06:25:29;;;;;;;54.22;20.70;;;;;;;-9.11;100.00;150295.22;5058055;28;20040;-76
2022/12/14 06:27:54;;;;;;;55.58;21.83;;;;;;;-9.28;100.00;150252.25;5049953;28;20033;-76
2022/12/14 06:30:20;;;;;;;51.08;20.27;;;;;;;-9.46;100.00;150209.25;5035444;28;20102;-75
2022/12/14 06:32:45;;;;;;;55.63;19.70;;;;;;;-9.57;100.00;150180.19;5041261;28;20556;-76
2022/12/14 06:35:11;;;;;;;48.10;19.48;;;;;;;-9.54;100.00;150187.78;5037387;28;20048;-76
2022/12/14 06:37:37;;;;;;;53.20;20.23;;;;;;;-9.62;100.00;150170.06;5031807;28;20071;-76
2022/12/14 06:40:02;;;;;;;51.47;19.80;;;;;;;-9.68;100.00;150154.91;5051035;28;20036;-76
2022/12/14 06:42:28;;;;;;;48.72;19.20;;;;;;;-9.83;100.00;150118.28;5049773;28;20123;-75
2022/12/14 06:44:54;;;;;;;52.47;19.15;;;;;;;-9.94;100.00;150089.16;5076754;28;20153;-75
2022/12/14 06:47:20;;;;;;;48.40;19.15;;;;;;;-9.81;100.00;150123.31;5041883;28;20494;-76
2022/12/14 06:49:45;;;;;;;49.38;19.58;;;;;;;-9.70;100.00;150149.88;5047853;28;20476;-75
2022/12/14 06:52:11;;;;;;;50.05;20.73;;;;;;;-9.64;100.00;150165.03;5038334;28;20040;-76
2022/12/14 06:54:36;;;;;;;56.90;21.60;;;;;;;-9.49;100.00;150200.38;5055630;28;20055;-75
2022/12/14 06:57:02;;;;;;;51.92;20.95;;;;;;;-9.40;100.00;150224.44;5017317;28;20398;-75
2022/12/14 06:59:29;;;;;;;51.45;21.05;;;;;;;-9.23;100.00;150264.88;5070286;28;20039;-76
2022/12/14 07:01:54;;;;;;;63.35;22.42;;;;;;;-9.24;100.00;150262.38;5071842;28;20036;-75
2022/12/14 07:04:20;;;;;;;54.72;21.08;;;;;;;-9.24;100.00;150263.63;5019438;28;20036;-75
2022/12/14 07:06:46;;;;;;;54.05;21.60;;;;;;;-9.26;100.00;150257.31;5032182;28;20091;-75
2022/12/14 07:09:13;;;;;;;48.30;19.67;;;;;;;-9.24;100.00;150262.38;5031596;28;20033;-76
2022/12/14 07:11:39;;;;;;;57.15;21.45;;;;;;;-9.25;100.00;150259.81;5013744;28;20603;-75
2022/12/14 07:14:06;;;;;;;55.75;22.60;;;;;;;-9.31;100.00;150244.66;5065253;28;20037;-75
2022/12/14 07:16:33;;;;;;;60.75;23.25;;;;;;;-9.24;100.00;150262.38;5065618;28;20024;-75
2022/12/14 07:18:59;;;;;;;66.78;25.58;;;;;;;-9.28;100.00;150252.25;5031623;28;20040;-75
2022/12/14 07:21:26;;;;;;;59.00;22.60;;;;;;;-9.26;100.00;150258.56;5038482;28;20035;-76
2022/12/14 07:23:51;;;;;;;58.22;22.05;;;;;;;-9.28;100.00;150252.25;5067348;28;20029;-75
2022/12/14 07:26:23;;;;;;;53.20;21.95;;;;;;;-9.24;100.00;150263.63;5052552;28;20044;-75
2022/12/14 07:28:50;;;;;;;47.10;20.67;;;;;;;-9.22;100.00;150268.66;5060266;28;20032;-75
2022/12/14 07:31:18;;;;;;;54.17;20.98;;;;;;;-9.21;100.00;150269.91;5054409;28;20040;-75
2022/12/14 07:33:44;;;;;;;53.03;21.35;;;;;;;-9.23;100.00;150266.16;5036841;28;20032;-75
2022/12/14 07:36:15;;;;;;;53.28;20.90;;;;;;;-9.27;100.00;150256.00;5030571;28;20067;-76
2022/12/14 07:38:43;;;;;;;51.72;19.40;;;;;;;-9.37;100.00;150230.75;5019910;28;20036;-75
2022/12/14 07:41:11;;;;;;;50.85;20.17;;;;;;;-9.36;100.00;150233.28;5029699;28;20151;-75
2022/12/14 07:43:38;;;;;;;48.40;20.73;;;;;;;-9.32;100.00;150242.09;5051426;28;20042;-74
2022/12/14 07:46:07;;;;;;;48.85;19.48;;;;;;;-9.34;100.00;150237.06;5021203;28;20053;-76
2022/12/14 07:48:34;;;;;;;49.75;20.63;;;;;;;-9.40;100.00;150224.44;5049282;28;20443;-75
2022/12/14 07:51:02;;;;;;;48.30;20.20;;;;;;;-9.52;100.00;150194.09;5055381;28;20051;-76
2022/12/14 07:53:27;;;;;;;48.90;20.83;;;;;;;-9.49;100.00;150200.38;5042735;28;20119;-75
2022/12/14 07:55:53;;;;;;;50.75;19.95;;;;;;;-9.40;100.00;150223.16;5071887;28;20044;-75
2022/12/14 07:58:21;;;;;;;53.13;21.98;;;;;;;-9.31;100.00;150245.91;5051746;28;20055;-75
2022/12/14 08:00:47;;;;;;;56.42;22.77;;;;;;;-9.29;100.00;150250.97;5051094;28;20036;-76
2022/12/14 08:03:13;;;;;;;48.13;20.48;;;;;;;-9.24;100.00;150262.38;5047927;28;20025;-75
2022/12/14 08:05:39;;;;;;;54.00;21.48;;;;;;;-9.21;100.00;150269.91;5052904;28;20051;-75
2022/12/14 08:08:05;;;;;;;51.50;20.23;;;;;;;-9.17;100.00;150278.78;5031476;28;20037;-75
2022/12/14 08:10:31;;;;;;;51.55;20.63;;;;;;;-9.16;100.00;150281.31;5061944;28;20056;-76
2022/12/14 08:12:57;;;;;;;45.33;19.65;;;;;;;-9.07;100.00;150304.09;5051926;28;20094;-75
2022/12/14 08:15:22;;;;;;;55.92;19.70;;;;;;;-8.95;100.00;150333.16;5032416;28;20105;-75
2022/12/14 08:17:48;;;;;;;52.28;20.92;;;;;;;-9.01;100.00;150319.25;5051033;28;20051;-75
2022/12/14 08:20:14;;;;;;;54.17;19.73;;;;;;;-8.94;100.00;150336.97;5042312;28;20082;-75
2022/12/14 08:22:39;;;;;;;50.75;21.85;;;;;;;-8.86;100.00;150355.94;5035051;28;20466;-75
2022/12/14 08:25:05;;;;;;;52.85;19.33;;;;;;;-8.83;100.00;150363.53;5050255;28;20037;-75
2022/12/14 08:27:31;;;;;;;51.35;20.70;;;;;;;-8.78;100.00;150374.91;5054721;28;20707;-75
2022/12/14 08:29:57;;;;;;;47.30;20.17;;;;;;;-8.83;100.00;150364.78;5038971;28;20043;-75
2022/12/14 08:32:22;;;;;;;56.17;22.15;;;;;;;-8.82;100.00;150366.03;5031707;28;20102;-75
2022/12/14 08:34:48;;;;;;;51.35;20.27;;;;;;;-8.68;100.00;150401.47;5035349;28;20090;-75
2022/12/14 08:37:14;;;;;;;48.28;21.38;;;;;;;-8.68;100.00;150400.19;5034167;28;20063;-75
2022/12/14 08:39:39;;;;;;;53.78;21.27;;;;;;;-8.64;100.00;150410.31;5036310;28;20047;-75
2022/12/14 08:42:05;;;;;;;46.17;20.85;;;;;;;-8.62;100.00;150416.63;5050461;28;20036;-76
2022/12/14 08:44:30;;;;;;;54.55;21.30;;;;;;;-8.54;100.00;150434.34;5072315;28;20042;-75
2022/12/14 08:46:56;;;;;;;47.70;20.13;;;;;;;-8.53;100.00;150438.16;5039111;28;20028;-75
2022/12/14 08:49:21;;;;;;;48.42;20.30;;;;;;;-8.49;100.00;150448.28;5045146;28;20041;-75
2022/12/14 08:51:47;;;;;;;48.13;19.65;;;;;;;-8.39;100.00;150471.00;5056966;28;20131;-75
2022/12/14 08:54:13;;;;;;;50.08;22.65;;;;;;;-8.36;100.00;150478.56;5050096;28;20032;-75
2022/12/14 08:56:38;;;;;;;49.45;20.92;;;;;;;-8.32;100.00;150489.97;5045533;28;20085;-75
2022/12/14 08:59:04;;;;;;;54.78;22.88;;;;;;;-8.24;100.00;150508.97;5065717;28;20067;-75
2022/12/14 09:01:30;;;;;;;45.70;20.48;;;;;;;-8.27;100.00;150501.34;5072270;28;20028;-76
2022/12/14 09:04:01;;;;;;;48.78;21.00;;;;;;;-8.24;100.00;150510.19;5021781;28;20086;-75
2022/12/14 09:06:26;;;;;;;53.33;21.02;;;;;;;-8.18;100.00;150524.13;5055520;28;20140;-75
2022/12/14 09:08:53;;;;;;;52.60;21.13;;;;;;;-8.14;100.00;150533.00;5033357;28;20115;-75
2022/12/14 09:11:19;;;;;;;52.95;22.20;;;;;;;-8.12;100.00;150538.03;5057674;28;20481;-75
2022/12/14 09:13:45;;;;;;;54.38;21.92;;;;;;;-8.03;100.00;150560.81;5032865;28;20032;-76
2022/12/14 09:16:14;;;;;;;56.67;22.20;;;;;;;-7.92;100.00;150587.41;5048549;28;20438;-75
2022/12/14 09:18:41;;;;;;;50.50;21.60;;;;;;;-7.86;100.00;150603.84;5022013;28;20093;-75
2022/12/14 09:21:07;;;;;;;50.97;22.45;;;;;;;-7.76;100.00;150626.63;5060236;28;20041;-75
2022/12/14 09:23:34;;;;;;;50.55;20.77;;;;;;;-7.77;100.00;150625.38;5036812;28;20038;-76
2022/12/14 09:26:05;;;;;;;46.78;20.58;;;;;;;-7.71;100.00;150640.56;5043188;28;20069;-75
2022/12/14 09:28:34;;;;;;;49.85;21.67;;;;;;;-7.66;100.00;150652.00;5058585;28;20043;-75
2022/12/14 09:31:02;;;;;;;49.65;20.33;;;;;;;-7.61;100.00;150664.59;5040645;28;20050;-75
2022/12/14 09:33:30;;;;;;;54.45;22.02;;;;;;;-7.48;100.00;150696.28;5046424;28;20040;-75
2022/12/14 09:36:00;;;;;;;47.63;20.88;;;;;;;-7.51;100.00;150688.69;5053498;28;20071;-75
2022/12/14 09:38:26;;;;;;;51.67;21.30;;;;;;;-7.41;100.00;150712.75;5055131;28;20043;-76
2022/12/14 09:40:56;;;;;;;45.47;20.83;;;;;;;-7.34;100.00;150731.75;5023259;28;20484;-75
2022/12/14 09:43:45;;;;;;;52.72;20.95;;;;;;;-7.29;100.00;150743.13;5034531;28;20038;-75
2022/12/14 09:46:32;;;;;;;52.13;20.60;;;;;;;-7.26;100.00;150752.00;5060355;28;20043;-75
2022/12/14 09:49:00;;;;;;;47.33;20.38;;;;;;;-7.19;100.00;150767.22;5034362;28;20139;-75
2022/12/14 09:51:33;;;;;;;46.70;21.45;;;;;;;-7.30;100.00;150741.88;5037740;28;20047;-75
2022/12/14 09:54:07;;;;;;;40.45;18.42;;;;;;;-7.22;100.00;150760.84;5038695;28;20059;-75
2022/12/14 09:56:33;;;;;;;51.00;20.35;;;;;;;-7.17;100.00;150773.53;5049132;28;20474;-76
2022/12/14 09:59:00;;;;;;;40.92;19.65;;;;;;;-7.15;100.00;150778.59;5068500;28;20040;-75
2022/12/14 10:01:38;;;;;;;49.53;20.88;;;;;;;-7.12;100.00;150784.91;5053401;28;20098;-75
2022/12/14 10:04:11;;;;;;;44.38;20.73;;;;;;;-7.06;100.00;150801.41;5031831;28;20040;-75
2022/12/14 10:06:53;;;;;;;;;;;;;;;-7.06;100.00;150801.41;5039032;28;20036;-75
2022/12/14 10:09:28;;;;;;;41.08;18.30;;;;;;;-7.10;100.00;150791.28;5055070;28;19916;-75
2022/12/14 10:12:06;;;;;;;45.65;19.33;;;;;;;-7.04;100.00;150805.22;5051863;28;20040;-75
2022/12/14 10:14:50;;;;;;;41.58;18.60;;;;;;;-6.91;100.00;150838.13;5053779;28;20063;-76
2022/12/14 10:17:45;;;;;;;46.25;19.52;;;;;;;-6.89;100.00;150841.94;5065521;28;20048;-75
2022/12/14 10:20:35;;;;;;;46.85;19.92;;;;;;;-6.79;100.00;150867.25;5010112;28;20040;-75
2022/12/14 10:23:02;;;;;;;40.80;18.63;;;;;;;-6.78;100.00;150868.50;5064352;28;20036;-76
2022/12/14 10:25:31;;;;;;;42.03;19.90;;;;;;;-6.76;100.00;150873.56;5031373;28;20513;-76
2022/12/14 10:28:12;;;;;;;45.67;18.83;;;;;;;-6.74;100.00;150879.94;5049456;28;20090;-75
2022/12/14 10:30:41;;;;;;;48.05;20.38;;;;;;;-6.70;100.00;150890.06;5047701;28;20024;-75
2022/12/14 10:33:23;;;;;;;43.70;19.83;;;;;;;-6.67;100.00;150897.69;5065896;28;20044;-75
2022/12/14 10:35:54;;;;;;;43.53;19.35;;;;;;;-6.55;100.00;150926.81;5047570;28;20047;-75
2022/12/14 10:38:29;;;;;;;45.40;20.10;;;;;;;-6.51;100.00;150935.69;5032976;28;20150;-76
2022/12/14 10:41:24;;;;;;;42.53;20.58;;;;;;;-6.49;100.00;150940.75;5036744;28;20039;-76
2022/12/14 10:44:13;;;;;;;42.33;19.95;;;;;;;-6.38;100.00;150967.38;5010582;28;20098;-75
2022/12/14 10:46:54;;;;;;;44.50;18.98;;;;;;;-6.28;100.00;150993.97;5046893;28;20039;-75
2022/12/14 10:49:27;;;;;;;42.28;17.75;;;;;;;-6.32;100.00;150983.84;5040293;28;20054;-76
2022/12/14 10:52:15;;;;;;;37.75;18.30;;;;;;;-6.31;100.00;150985.09;5037739;28;20101;-76
2022/12/14 10:54:54;;;;;;;44.38;19.35;;;;;;;-6.16;100.00;151021.84;5069075;28;20035;-76
2022/12/14 10:57:25;;;;;;;39.03;19.70;;;;;;;-6.01;100.00;151059.88;5024832;28;20040;-76
2022/12/14 10:59:51;;;;;;;47.05;20.15;;;;;;;-5.91;100.00;151083.94;5037427;28;20574;-75
2022/12/14 11:02:26;;;;;;;40.80;19.80;;;;;;;-5.81;100.00;151108.03;5014015;28;20123;-76
2022/12/14 11:04:55;;;;;;;43.22;19.48;;;;;;;-5.78;100.00;151115.59;5042172;28;20040;-76
2022/12/14 11:07:24;;;;;;;41.17;19.85;;;;;;;-5.68;100.00;151142.25;5031647;28;20409;-75
2022/12/14 11:09:50;;;;;;;39.85;20.40;;;;;;;-5.70;100.00;151135.91;5047982;28;20081;-75
2022/12/14 11:12:20;;;;;;;37.88;18.95;;;;;;;-5.67;100.00;151143.50;5053835;28;20418;-75
2022/12/14 11:14:57;;;;;;;41.42;18.52;;;;;;;-5.66;100.00;151146.06;5063271;28;20036;-75
2022/12/14 11:17:30;;;;;;;44.42;20.70;;;;;;;-5.63;100.00;151153.69;5026516;28;20032;-76
2022/12/14 11:20:08;;;;;;;42.85;19.35;;;;;;;-5.53;100.00;151177.75;5012105;28;20041;-75
2022/12/14 11:22:52;;;;;;;39.17;18.52;;;;;;;-5.46;100.00;151195.53;5048760;28;20477;-75
2022/12/14 11:25:29;;;;;;;38.85;19.55;;;;;;;-5.39;100.00;151212.00;5048661;28;20036;-75
2022/12/14 11:27:57;;;;;;;45.25;19.70;;;;;;;-5.47;100.00;151194.22;5020967;28;20543;-75
2022/12/14 11:30:23;;;;;;;42.17;19.77;;;;;;;-5.41;100.00;151208.19;5031303;28;20044;-76
2022/12/14 11:32:49;;;;;;;44.63;19.38;;;;;;;-5.33;100.00;151228.50;5035887;28;20119;-76
2022/12/14 11:35:17;;;;;;;43.03;19.75;;;;;;;-5.19;100.00;151261.47;5048096;28;20719;-76